Time;durP1;ratioP1;P1;durP2;ratioP2;P2;SDS_P1;SDS_P2;PMS_P1;PMS_P2;Temp;Humidity;BMP_temperature;BMP_pressure;BME280_temperature;BME280_humidity;BME280_pressure;Samples;Min_cycle;Max_cycle;Signal;HPM_P1;HPM_P2
2022/11/08 00:01:51;;;;;;;7.10;3.73;;;9.80;94.60;;;;;;4998448;28;20423;-43
2022/11/08 00:04:17;;;;;;;5.40;3.50;;;9.80;94.60;;;;;;4998203;28;20766;-44
2022/11/08 00:14:56;;;;;;;4.50;3.70;;;9.70;94.60;;;;;;4997273;28;20486;-49
2022/11/08 00:17:23;;;;;;;4.80;4.30;;;9.70;94.60;;;;;;4982462;28;20423;-43
2022/11/08 00:19:50;;;;;;;5.20;4.50;;;9.70;94.60;;;;;;5043940;28;20442;-44
2022/11/08 00:22:16;;;;;;;4.50;3.43;;;9.70;94.70;;;;;;5062004;28;20514;-46
2022/11/08 00:24:42;;;;;;;5.20;3.70;;;9.60;94.70;;;;;;5079727;28;20431;-44
2022/11/08 00:27:20;;;;;;;3.80;3.50;;;9.60;94.70;;;;;;5079997;28;20471;-47
2022/11/08 00:29:46;;;;;;;4.40;3.53;;;9.60;94.70;;;;;;5079625;28;20435;-45
2022/11/08 00:32:14;;;;;;;3.97;3.33;;;9.60;94.80;;;;;;5079408;28;20476;-45
2022/11/08 00:34:40;;;;;;;4.37;3.97;;;9.60;94.80;;;;;;5078903;28;20178;-45
2022/11/08 00:37:06;;;;;;;4.90;3.60;;;9.50;94.80;;;;;;5078776;28;20415;-44
2022/11/08 00:39:31;;;;;;;4.73;4.10;;;9.50;94.80;;;;;;5079042;28;20185;-47
2022/11/08 00:41:57;;;;;;;6.87;3.70;;;9.50;94.80;;;;;;5045775;28;20442;-45
2022/11/08 00:44:23;;;;;;;3.70;2.90;;;9.50;94.90;;;;;;5078373;28;20278;-44
2022/11/08 00:46:49;;;;;;;4.40;3.80;;;9.50;94.90;;;;;;5078181;28;20521;-44
2022/11/08 00:49:15;;;;;;;5.00;4.10;;;9.50;94.90;;;;;;5078718;28;20174;-47
2022/11/08 00:51:41;;;;;;;4.33;3.50;;;9.40;94.90;;;;;;5078009;28;20777;-48
2022/11/08 00:54:07;;;;;;;4.80;4.30;;;9.40;94.80;;;;;;5077826;28;20233;-45
2022/11/08 00:56:33;;;;;;;4.90;3.80;;;9.40;94.80;;;;;;5078000;28;20423;-44
2022/11/08 00:58:59;;;;;;;3.80;3.40;;;9.40;94.80;;;;;;5078000;28;20490;-46
2022/11/08 01:01:25;;;;;;;4.83;4.33;;;9.30;94.80;;;;;;5078796;28;20504;-44
2022/11/08 01:03:51;;;;;;;7.83;3.97;;;9.40;94.90;;;;;;5078621;28;20776;-48
2022/11/08 01:06:19;;;;;;;4.53;3.70;;;9.30;94.80;;;;;;5078276;28;20460;-45
2022/11/08 01:08:45;;;;;;;3.97;3.20;;;9.30;94.80;;;;;;5077763;28;20513;-47
2022/11/08 01:11:19;;;;;;;4.50;3.70;;;9.20;94.70;;;;;;5065195;28;20826;-46
2022/11/08 01:13:46;;;;;;;4.07;3.67;;;9.20;94.70;;;;;;5058947;28;20428;-47
2022/11/08 01:16:21;;;;;;;4.80;3.83;;;9.20;94.80;;;;;;5057755;28;20440;-47
2022/11/08 01:18:49;;;;;;;4.03;3.40;;;9.10;94.70;;;;;;5058533;28;20528;-45
2022/11/08 01:21:15;;;;;;;4.73;3.20;;;9.10;94.70;;;;;;5058451;28;20508;-46
2022/11/08 01:23:42;;;;;;;3.83;3.50;;;9.10;94.80;;;;;;5058552;28;20874;-45
2022/11/08 01:26:13;;;;;;;4.67;3.77;;;9.10;94.80;;;;;;5058358;28;20464;-47
2022/11/08 01:28:39;;;;;;;5.63;3.30;;;9.10;94.70;;;;;;5058650;28;20420;-45
2022/11/08 01:31:10;;;;;;;4.93;3.37;;;9.00;94.70;;;;;;5058151;28;20764;-45
2022/11/08 01:33:36;;;;;;;4.43;4.00;;;9.00;94.70;;;;;;5056542;28;20740;-46
2022/11/08 01:36:05;;;;;;;5.13;3.40;;;9.00;94.70;;;;;;5058104;28;20413;-44
2022/11/08 01:38:30;;;;;;;4.00;3.60;;;8.90;94.60;;;;;;5057931;28;20443;-48
2022/11/08 01:40:56;;;;;;;4.40;4.00;;;8.90;94.60;;;;;;5058378;28;20417;-47
2022/11/08 01:43:25;;;;;;;5.53;3.50;;;8.90;94.60;;;;;;5057365;28;20253;-44
2022/11/08 01:46:18;;;;;;;3.80;3.20;;;8.80;94.50;;;;;;5058476;28;20241;-45
2022/11/08 01:49:01;;;;;;;4.73;3.23;;;8.80;94.50;;;;;;5056661;28;20746;-47
2022/11/08 01:51:32;;;;;;;6.20;3.43;;;8.80;94.50;;;;;;5057389;28;20478;-46
2022/11/08 01:53:58;;;;;;;3.27;2.97;;;8.80;94.50;;;;;;5039852;28;20782;-46
2022/11/08 01:56:24;;;;;;;3.37;3.07;;;8.70;94.40;;;;;;5039883;28;20732;-47
2022/11/08 01:58:51;;;;;;;4.10;3.37;;;8.70;94.40;;;;;;5038925;28;20444;-47
2022/11/08 02:01:17;;;;;;;4.90;3.43;;;8.70;94.40;;;;;;5057362;28;20178;-45
2022/11/08 02:03:42;;;;;;;3.43;3.13;;;8.60;94.40;;;;;;5055997;28;20452;-46
2022/11/08 02:06:09;;;;;;;3.90;3.50;;;8.60;94.40;;;;;;5056083;28;20271;-46
2022/11/08 02:08:40;;;;;;;3.30;2.80;;;8.60;94.80;;;;;;5039751;28;20179;-46
2022/11/08 02:11:08;;;;;;;3.50;3.20;;;8.60;94.50;;;;;;5057690;28;20434;-46
2022/11/08 02:13:35;;;;;;;3.40;3.10;;;8.60;94.60;;;;;;5039825;28;20424;-47
2022/11/08 02:16:01;;;;;;;5.53;3.40;;;8.50;94.60;;;;;;5040079;28;20466;-45
2022/11/08 02:18:28;;;;;;;5.27;4.07;;;8.50;94.60;;;;;;5057277;28;20451;-45
2022/11/08 02:21:17;;;;;;;6.70;3.13;;;8.50;94.70;;;;;;5038020;28;20544;-47
2022/11/08 02:23:43;;;;;;;3.67;3.37;;;8.50;94.70;;;;;;5055607;28;20528;-45
2022/11/08 02:26:09;;;;;;;4.60;3.93;;;8.50;94.70;;;;;;5055468;28;20940;-46
2022/11/08 02:28:39;;;;;;;4.10;3.10;;;8.40;94.70;;;;;;5055488;28;20221;-46
2022/11/08 02:31:08;;;;;;;3.70;3.17;;;8.40;94.70;;;;;;5056316;28;20210;-45
2022/11/08 02:33:34;;;;;;;4.23;3.73;;;8.40;94.70;;;;;;5056293;28;20482;-46
2022/11/08 02:36:01;;;;;;;4.73;3.13;;;8.40;94.70;;;;;;5056595;28;20424;-45
2022/11/08 02:38:27;;;;;;;3.57;2.90;;;8.40;94.60;;;;;;5056884;28;20523;-45
2022/11/08 02:40:54;;;;;;;3.47;2.70;;;8.40;94.60;;;;;;5057444;28;20510;-46
2022/11/08 02:43:21;;;;;;;2.80;2.60;;;8.30;94.60;;;;;;5057201;28;20175;-46
2022/11/08 02:45:47;;;;;;;6.13;2.47;;;8.30;94.50;;;;;;5056624;28;20472;-45
2022/11/08 02:48:13;;;;;;;4.20;2.60;;;8.30;94.50;;;;;;5061806;28;20424;-45
2022/11/08 02:50:39;;;;;;;4.47;3.50;;;8.20;94.40;;;;;;5057004;28;20487;-46
2022/11/08 02:53:05;;;;;;;3.77;3.10;;;8.20;94.40;;;;;;5056695;28;20476;-46
2022/11/08 02:55:32;;;;;;;2.80;2.57;;;8.20;94.40;;;;;;5057005;28;20917;-46
2022/11/08 02:57:58;;;;;;;3.13;2.83;;;8.20;94.40;;;;;;5040386;28;20421;-44
2022/11/08 03:00:23;;;;;;;3.17;2.83;;;8.20;94.40;;;;;;5060987;28;20798;-46
2022/11/08 03:02:56;;;;;;;3.10;2.70;;;8.10;94.30;;;;;;5061281;28;20185;-46
2022/11/08 03:05:23;;;;;;;4.90;3.03;;;8.10;94.30;;;;;;5061232;28;20205;-48
2022/11/08 03:07:49;;;;;;;3.53;3.23;;;8.00;94.30;;;;;;5047058;28;20464;-47
2022/11/08 03:10:15;;;;;;;4.33;2.87;;;8.00;94.20;;;;;;5080907;28;20467;-45
2022/11/08 03:12:41;;;;;;;2.97;2.67;;;8.00;94.20;;;;;;5079508;28;20475;-46
2022/11/08 03:15:08;;;;;;;3.00;2.57;;;8.00;94.20;;;;;;5080640;28;20518;-48
2022/11/08 03:17:33;;;;;;;4.63;2.67;;;7.90;94.20;;;;;;5080778;28;20682;-48
2022/11/08 03:19:59;;;;;;;3.83;3.00;;;7.90;94.10;;;;;;5080688;28;20537;-46
2022/11/08 03:22:25;;;;;;;3.10;2.80;;;7.90;94.20;;;;;;5080618;28;20177;-47
2022/11/08 03:24:50;;;;;;;6.83;2.80;;;7.90;94.20;;;;;;5080579;28;20186;-48
2022/11/08 03:27:18;;;;;;;3.00;2.70;;;7.80;94.10;;;;;;5080282;28;20263;-44
2022/11/08 03:29:44;;;;;;;5.07;3.13;;;7.80;94.20;;;;;;5080136;28;20260;-47
2022/11/08 03:32:10;;;;;;;3.70;2.90;;;7.80;94.20;;;;;;5080112;28;20667;-45
2022/11/08 03:34:35;;;;;;;3.60;2.60;;;7.80;94.20;;;;;;5080398;28;20424;-47
2022/11/08 03:37:01;;;;;;;6.87;3.17;;;7.80;94.20;;;;;;5079958;28;20182;-46
2022/11/08 03:39:26;;;;;;;3.73;2.60;;;7.70;94.20;;;;;;5078637;28;20195;-45
2022/11/08 03:41:52;;;;;;;2.90;2.60;;;7.70;94.20;;;;;;5079430;28;20234;-49
2022/11/08 03:44:18;;;;;;;4.87;3.20;;;7.70;94.20;;;;;;5079965;28;20226;-45
2022/11/08 03:46:43;;;;;;;3.30;2.80;;;7.70;94.20;;;;;;5080350;28;20201;-47
2022/11/08 03:49:09;;;;;;;2.93;2.63;;;7.70;94.20;;;;;;5079422;28;20196;-45
2022/11/08 03:51:34;;;;;;;3.30;2.90;;;7.70;94.20;;;;;;5077229;28;20173;-44
2022/11/08 03:54:00;;;;;;;2.97;2.67;;;7.60;94.20;;;;;;5076951;28;20263;-47
2022/11/08 03:56:26;;;;;;;3.23;2.93;;;7.60;94.10;;;;;;5077861;28;20173;-45
2022/11/08 03:58:52;;;;;;;3.20;2.90;;;7.60;94.10;;;;;;5077642;28;20181;-44
2022/11/08 04:01:17;;;;;;;3.87;3.10;;;7.50;94.10;;;;;;5077918;28;20511;-45
2022/11/08 04:03:43;;;;;;;3.40;2.70;;;7.50;94.10;;;;;;5077460;28;20288;-44
2022/11/08 04:06:08;;;;;;;3.70;2.87;;;7.50;94.10;;;;;;5077280;28;20210;-46
2022/11/08 04:08:34;;;;;;;4.13;3.10;;;7.50;94.00;;;;;;5077193;28;20178;-45
2022/11/08 04:16:30;;;;;;;7.00;3.20;;;7.40;94.00;;;;;;5063569;28;20504;-44
2022/11/08 04:21:43;;;;;;;6.83;4.63;;;7.40;94.00;;;;;;5077827;28;20705;-44
2022/11/08 04:24:09;;;;;;;6.77;6.07;;;7.30;94.00;;;;;;5061081;28;20696;-45
2022/11/08 04:26:34;;;;;;;7.03;5.60;;;7.30;94.00;;;;;;5077626;28;20470;-46
2022/11/08 04:29:02;;;;;;;8.40;6.77;;;7.30;94.00;;;;;;5077206;28;20337;-47
2022/11/08 04:31:27;;;;;;;7.07;5.90;;;7.30;94.10;;;;;;5068149;28;20181;-47
2022/11/08 04:33:53;;;;;;;9.20;5.80;;;7.30;94.10;;;;;;5058396;28;20425;-46
2022/11/08 04:36:19;;;;;;;7.10;5.97;;;7.30;94.10;;;;;;5059091;28;20237;-45
2022/11/08 04:38:49;;;;;;;6.93;5.50;;;7.30;94.10;;;;;;5058640;28;20508;-46
2022/11/08 04:41:17;;;;;;;6.47;5.60;;;7.30;94.20;;;;;;5069609;28;20694;-45
2022/11/08 04:43:42;;;;;;;5.20;4.70;;;7.30;94.30;;;;;;5077897;28;20440;-46
2022/11/08 04:46:13;;;;;;;5.13;4.63;;;7.30;94.30;;;;;;5079122;28;20463;-49
2022/11/08 04:48:39;;;;;;;6.37;4.83;;;7.20;94.30;;;;;;5060438;28;20274;-45
2022/11/08 04:51:06;;;;;;;7.33;4.50;;;7.20;94.30;;;;;;5078301;28;20969;-46
2022/11/08 04:53:32;;;;;;;5.50;4.77;;;7.20;94.40;;;;;;5078152;28;20912;-45
2022/11/08 04:56:03;;;;;;;5.00;4.33;;;7.20;94.40;;;;;;5077393;28;20498;-49
2022/11/08 04:58:36;;;;;;;7.60;4.53;;;7.20;94.40;;;;;;5077827;28;20439;-45
2022/11/08 05:01:03;;;;;;;5.13;4.63;;;7.20;94.40;;;;;;5073773;28;20852;-46
2022/11/08 05:03:29;;;;;;;4.87;4.37;;;7.20;94.50;;;;;;5077937;28;20871;-46
2022/11/08 05:05:55;;;;;;;6.30;5.70;;;7.20;94.50;;;;;;5077714;28;20471;-46
2022/11/08 05:08:21;;;;;;;4.67;3.93;;;7.20;94.50;;;;;;5060645;28;20427;-46
2022/11/08 05:10:46;;;;;;;4.93;3.80;;;7.20;94.50;;;;;;5078159;28;20184;-46
2022/11/08 05:13:12;;;;;;;4.63;4.00;;;7.20;94.60;;;;;;5077887;28;20231;-45
2022/11/08 05:15:37;;;;;;;6.67;3.30;;;7.20;94.60;;;;;;5077514;28;20464;-44
2022/11/08 05:18:03;;;;;;;4.80;4.17;;;7.20;94.70;;;;;;5078001;28;20265;-45
2022/11/08 05:23:25;;;;;;;4.80;3.60;;;7.20;94.70;;;;;;5072572;28;20277;-45
2022/11/08 05:25:52;;;;;;;4.40;3.70;;;7.20;94.70;;;;;;5076258;28;20467;-45
2022/11/08 05:28:18;;;;;;;4.50;3.70;;;7.20;94.70;;;;;;5055957;28;20417;-46
2022/11/08 05:30:44;;;;;;;5.27;4.00;;;7.30;94.80;;;;;;5055516;28;20451;-45
2022/11/08 05:33:12;;;;;;;4.87;3.13;;;7.30;94.80;;;;;;5054695;28;20741;-44
2022/11/08 05:35:38;;;;;;;3.97;3.37;;;7.30;94.80;;;;;;5062521;28;20281;-47
2022/11/08 05:38:04;;;;;;;5.87;4.10;;;7.30;94.80;;;;;;5073897;28;20522;-47
2022/11/08 05:40:29;;;;;;;4.40;3.30;;;7.30;94.90;;;;;;5075743;28;20196;-46
2022/11/08 05:42:55;;;;;;;3.73;3.20;;;7.30;94.90;;;;;;5075020;28;20419;-45
2022/11/08 05:45:21;;;;;;;4.43;3.63;;;7.30;94.90;;;;;;5074058;28;20255;-45
2022/11/08 05:47:46;;;;;;;3.63;3.33;;;7.30;94.90;;;;;;5075783;28;20178;-48
2022/11/08 05:50:12;;;;;;;3.30;2.83;;;7.40;95.00;;;;;;5074213;28;20178;-47
2022/11/08 05:52:38;;;;;;;3.80;3.20;;;7.40;95.00;;;;;;5072938;28;20272;-44
2022/11/08 05:55:04;;;;;;;4.27;3.10;;;7.40;95.10;;;;;;5074184;28;20531;-44
2022/11/08 05:57:30;;;;;;;4.00;3.00;;;7.40;95.10;;;;;;5074391;28;20499;-46
2022/11/08 05:59:55;;;;;;;5.50;3.50;;;7.40;95.20;;;;;;5075557;28;20913;-47
2022/11/08 06:02:21;;;;;;;3.90;3.60;;;7.40;95.50;;;;;;5075143;28;20205;-45
2022/11/08 06:04:47;;;;;;;4.30;3.50;;;7.40;95.30;;;;;;5074104;28;20186;-46
2022/11/08 06:07:13;;;;;;;3.90;3.20;;;7.40;95.40;;;;;;5072498;28;20296;-44
2022/11/08 06:09:39;;;;;;;5.77;4.13;;;7.40;95.40;;;;;;5073657;28;20789;-45
2022/11/08 06:12:05;;;;;;;3.30;3.00;;;7.40;95.40;;;;;;5073342;28;20599;-47
2022/11/08 06:14:30;;;;;;;4.63;3.37;;;7.50;95.50;;;;;;5073434;28;20186;-46
2022/11/08 06:16:56;;;;;;;3.23;2.50;;;7.50;95.50;;;;;;5070656;28;20446;-44
2022/11/08 06:19:22;;;;;;;5.10;3.53;;;7.50;95.50;;;;;;5070907;28;20191;-46
2022/11/08 06:21:47;;;;;;;4.03;3.63;;;7.50;95.50;;;;;;5068522;28;20178;-46
2022/11/08 06:24:16;;;;;;;3.90;3.00;;;7.60;95.60;;;;;;5069254;28;20208;-46
2022/11/08 06:26:42;;;;;;;7.20;4.00;;;7.60;95.60;;;;;;5063175;28;20232;-45
2022/11/08 06:29:08;;;;;;;3.80;2.80;;;7.60;95.70;;;;;;5048217;28;20446;-47
2022/11/08 06:31:34;;;;;;;4.00;3.53;;;7.70;95.80;;;;;;5047333;28;20401;-46
2022/11/08 06:34:00;;;;;;;3.67;3.37;;;7.70;95.80;;;;;;5046383;28;20207;-45
2022/11/08 06:36:26;;;;;;;3.90;3.30;;;7.70;95.80;;;;;;5069273;28;20435;-45
2022/11/08 06:38:55;;;;;;;4.93;3.70;;;7.80;95.80;;;;;;5067932;28;20430;-46
2022/11/08 06:41:21;;;;;;;4.60;3.10;;;7.80;95.80;;;;;;5066028;28;20181;-46
2022/11/08 06:43:47;;;;;;;4.10;3.70;;;7.80;95.80;;;;;;5065098;28;20545;-45
2022/11/08 06:46:13;;;;;;;3.60;3.00;;;7.90;95.80;;;;;;5049209;28;20747;-46
2022/11/08 06:48:39;;;;;;;5.10;3.70;;;8.00;95.80;;;;;;5068917;28;20415;-44
2022/11/08 06:51:05;;;;;;;4.13;3.23;;;8.00;95.70;;;;;;5036515;28;20427;-45
2022/11/08 06:53:31;;;;;;;4.80;3.80;;;8.10;95.70;;;;;;5048171;28;20708;-45
2022/11/08 06:56:01;;;;;;;3.60;3.20;;;8.20;95.80;;;;;;5054002;28;20677;-46
2022/11/08 06:58:27;;;;;;;4.37;3.30;;;8.30;95.70;;;;;;5054295;28;20529;-49
2022/11/08 07:00:53;;;;;;;4.40;2.63;;;8.40;95.70;;;;;;5052270;28;20814;-47
2022/11/08 07:03:18;;;;;;;5.07;4.20;;;8.50;95.60;;;;;;5052377;28;20413;-45
2022/11/08 07:05:44;;;;;;;3.90;3.50;;;8.70;95.70;;;;;;5035607;28;20326;-45
2022/11/08 07:08:10;;;;;;;3.83;3.33;;;9.00;95.80;;;;;;5053112;28;20179;-55
2022/11/08 07:10:36;;;;;;;5.00;3.70;;;9.30;95.70;;;;;;5053720;28;20513;-46
2022/11/08 07:13:04;;;;;;;3.73;3.13;;;9.60;95.30;;;;;;5054380;28;20190;-44
2022/11/08 07:15:31;;;;;;;6.13;3.63;;;9.90;94.90;;;;;;5055345;28;20436;-47
2022/11/08 07:18:01;;;;;;;4.40;3.57;;;10.10;94.00;;;;;;5053368;28;20428;-45
2022/11/08 07:20:26;;;;;;;4.23;3.83;;;10.30;93.80;;;;;;5053221;28;20424;-46
2022/11/08 07:22:56;;;;;;;4.37;2.80;;;10.50;93.50;;;;;;5053882;28;20416;-46
2022/11/08 07:25:22;;;;;;;2.93;2.60;;;10.60;93.30;;;;;;5054260;28;20261;-45
2022/11/08 07:27:48;;;;;;;3.70;2.60;;;10.60;93.10;;;;;;5053584;28;20424;-46
2022/11/08 07:30:13;;;;;;;3.23;2.93;;;10.70;93.10;;;;;;5052276;28;20440;-45
2022/11/08 07:32:39;;;;;;;3.27;2.97;;;10.70;93.00;;;;;;5053156;28;20197;-47
2022/11/08 07:35:05;;;;;;;3.40;2.80;;;10.70;92.90;;;;;;5053265;28;20178;-46
2022/11/08 07:37:32;;;;;;;3.33;2.70;;;10.70;92.80;;;;;;5047251;28;20344;-46
2022/11/08 07:39:57;;;;;;;4.30;2.70;;;10.70;92.80;;;;;;5034840;28;20447;-47
2022/11/08 07:42:23;;;;;;;3.03;2.53;;;10.70;92.80;;;;;;5052115;28;20592;-45
2022/11/08 07:44:49;;;;;;;6.10;2.97;;;10.60;92.70;;;;;;5052236;28;20484;-45
2022/11/08 07:47:15;;;;;;;3.77;2.70;;;10.70;92.80;;;;;;5057065;28;20206;-48
2022/11/08 07:49:41;;;;;;;3.47;2.60;;;10.80;92.90;;;;;;5040056;28;20193;-45
2022/11/08 07:52:06;;;;;;;4.20;2.90;;;11.20;93.00;;;;;;5056567;28;20421;-47
2022/11/08 07:54:32;;;;;;;3.10;2.60;;;11.60;92.90;;;;;;5088113;28;20596;-46
2022/11/08 07:56:58;;;;;;;3.20;2.53;;;12.20;92.80;;;;;;5080124;28;20187;-46
2022/11/08 07:59:23;;;;;;;3.43;2.80;;;12.80;92.40;;;;;;5087389;28;20255;-45
2022/11/08 08:01:49;;;;;;;3.90;2.53;;;13.40;91.90;;;;;;5076342;28;20197;-46
2022/11/08 08:04:14;;;;;;;3.40;2.70;;;14.10;91.30;;;;;;5094379;28;20195;-46
2022/11/08 08:06:40;;;;;;;2.90;2.50;;;14.70;90.50;;;;;;5093756;28;20205;-46
2022/11/08 08:09:05;;;;;;;2.57;2.37;;;15.00;89.20;;;;;;5094427;28;20529;-46
2022/11/08 08:11:31;;;;;;;2.93;2.30;;;15.40;87.80;;;;;;5095175;28;20218;-46
2022/11/08 08:13:57;;;;;;;3.10;2.80;;;15.80;86.50;;;;;;5090465;28;20297;-48
2022/11/08 08:16:23;;;;;;;2.87;2.50;;;16.40;85.10;;;;;;5093634;28;20208;-48
2022/11/08 08:18:49;;;;;;;4.60;2.73;;;16.90;83.10;;;;;;5078260;28;20189;-47
2022/11/08 08:21:15;;;;;;;4.17;2.73;;;17.50;81.30;;;;;;5098256;28;20677;-46
2022/11/08 08:23:41;;;;;;;3.00;2.47;;;18.10;79.50;;;;;;5075615;28;20787;-45
2022/11/08 08:26:06;;;;;;;2.67;2.20;;;18.70;77.40;;;;;;5089832;28;20198;-45
2022/11/08 08:28:32;;;;;;;3.07;2.30;;;19.30;75.50;;;;;;5059505;28;20188;-46
2022/11/08 08:30:58;;;;;;;3.83;2.20;;;19.90;73.50;;;;;;5075137;28;20231;-46
2022/11/08 08:33:24;;;;;;;3.73;2.17;;;20.60;71.50;;;;;;5074189;28;20169;-45
2022/11/08 08:35:52;;;;;;;2.17;1.83;;;21.10;68.20;;;;;;5057790;28;20184;-44
2022/11/08 08:38:19;;;;;;;2.13;1.80;;;21.70;65.60;;;;;;5075442;28;20449;-49
2022/11/08 08:40:44;;;;;;;2.40;1.80;;;22.10;63.10;;;;;;5057537;28;20442;-45
2022/11/08 08:43:10;;;;;;;2.37;1.63;;;22.60;61.20;;;;;;5078107;28;20424;-46
2022/11/08 08:45:36;;;;;;;3.10;2.10;;;23.00;59.20;;;;;;5078165;28;20217;-46
2022/11/08 08:48:02;;;;;;;4.00;1.90;;;23.50;57.70;;;;;;5059970;28;20209;-46
2022/11/08 08:50:30;;;;;;;2.83;2.13;;;23.70;56.40;;;;;;5077950;28;20752;-45
2022/11/08 08:53:00;;;;;;;2.30;1.57;;;23.70;54.80;;;;;;5078263;28;20460;-44
2022/11/08 08:55:27;;;;;;;2.13;1.90;;;23.80;54.00;;;;;;5078242;28;20433;-45
2022/11/08 08:57:53;;;;;;;2.47;1.80;;;23.70;53.60;;;;;;5059314;28;20420;-45
2022/11/08 09:00:18;;;;;;;2.50;2.10;;;23.40;52.90;;;;;;5075331;28;20456;-46
2022/11/08 09:02:44;;;;;;;1.70;1.53;;;23.10;52.70;;;;;;5076414;28;20457;-46
2022/11/08 09:05:11;;;;;;;3.33;2.10;;;22.70;52.10;;;;;;5075712;28;20433;-46
2022/11/08 09:07:37;;;;;;;4.87;1.70;;;22.30;51.90;;;;;;5059382;28;20214;-44
2022/11/08 09:10:03;;;;;;;3.10;2.00;;;22.00;51.70;;;;;;5058349;28;20437;-46
2022/11/08 09:12:30;;;;;;;2.60;2.10;;;21.80;51.20;;;;;;5076930;28;20246;-45
2022/11/08 09:14:55;;;;;;;2.03;1.53;;;22.00;50.80;;;;;;5077934;28;20436;-50
2022/11/08 09:17:22;;;;;;;3.23;1.50;;;22.50;50.20;;;;;;5077365;28;20423;-50
2022/11/08 09:19:47;;;;;;;2.80;1.60;;;23.00;49.40;;;;;;5042977;28;20258;-43
2022/11/08 09:22:13;;;;;;;2.20;1.67;;;23.20;48.20;;;;;;5075881;28;20422;-44
2022/11/08 09:24:38;;;;;;;2.20;1.80;;;23.20;47.30;;;;;;5085806;28;20180;-45
2022/11/08 09:27:05;;;;;;;2.03;1.67;;;23.20;46.40;;;;;;5085753;28;20215;-45
2022/11/08 09:29:32;;;;;;;1.67;1.47;;;23.20;46.50;;;;;;5087112;28;20190;-45
2022/11/08 09:31:58;;;;;;;2.27;1.97;;;23.30;46.60;;;;;;5077953;28;20417;-44
2022/11/08 09:34:24;;;;;;;2.57;1.70;;;23.30;46.60;;;;;;5096602;28;20456;-44
2022/11/08 09:36:49;;;;;;;3.00;2.23;;;23.10;45.70;;;;;;5097257;28;20415;-44
2022/11/08 09:39:15;;;;;;;2.03;1.43;;;22.80;45.50;;;;;;5097477;28;20718;-44
2022/11/08 09:42:00;;;;;;;1.87;1.50;;;22.50;45.40;;;;;;5094395;28;20176;-45
2022/11/08 09:44:50;;;;;;;3.00;2.13;;;22.30;45.80;;;;;;5096716;28;20750;-44
2022/11/08 09:47:26;;;;;;;2.13;1.63;;;22.10;45.50;;;;;;5096274;28;20461;-47
2022/11/08 09:50:21;;;;;;;2.47;1.83;;;22.40;45.80;;;;;;5078976;28;21133;-45
2022/11/08 09:53:04;;;;;;;2.83;1.77;;;23.20;45.60;;;;;;5025971;28;20424;-44
2022/11/08 09:55:41;;;;;;;2.50;2.10;;;23.50;44.40;;;;;;5096670;28;20534;-47
2022/11/08 09:58:10;;;;;;;2.00;1.60;;;23.50;44.50;;;;;;5078571;28;20407;-44
2022/11/08 10:00:38;;;;;;;6.00;3.40;;;23.20;44.00;;;;;;5095549;28;21096;-44
2022/11/08 10:03:03;;;;;;;2.90;2.00;;;22.90;44.10;;;;;;5088956;28;20429;-44
2022/11/08 10:05:39;;;;;;;3.67;2.30;;;22.60;44.50;;;;;;5090121;28;21005;-46
2022/11/08 10:08:07;;;;;;;2.53;1.93;;;22.20;44.90;;;;;;5077503;28;20511;-44
2022/11/08 10:10:56;;;;;;;1.93;1.67;;;21.80;45.10;;;;;;5093456;28;20775;-43
2022/11/08 10:13:37;;;;;;;3.37;1.97;;;21.50;45.40;;;;;;5094168;28;20410;-45
2022/11/08 10:16:28;;;;;;;3.30;2.20;;;21.30;45.70;;;;;;5073863;28;20422;-44
2022/11/08 10:19:08;;;;;;;2.57;1.83;;;21.00;45.80;;;;;;5087360;28;21046;-46
2022/11/08 10:21:52;;;;;;;2.03;1.80;;;20.70;45.90;;;;;;5094904;28;20414;-43
2022/11/08 10:24:36;;;;;;;2.60;1.93;;;20.60;46.20;;;;;;5076641;28;20464;-45
2022/11/08 10:27:04;;;;;;;2.27;2.07;;;20.40;46.50;;;;;;5095618;28;20493;-44
2022/11/08 10:29:42;;;;;;;2.97;1.90;;;20.30;46.70;;;;;;5076609;28;20450;-46
2022/11/08 10:32:17;;;;;;;2.60;1.77;;;20.30;46.90;;;;;;5094986;28;20480;-44
2022/11/08 10:35:07;;;;;;;2.30;1.80;;;20.30;47.10;;;;;;5095653;28;20528;-45
2022/11/08 10:37:32;;;;;;;2.27;1.47;;;20.50;47.30;;;;;;5094352;28;20425;-46
2022/11/08 10:40:05;;;;;;;2.53;1.80;;;20.60;47.50;;;;;;5096051;28;20535;-45
2022/11/08 10:42:43;;;;;;;2.63;1.67;;;20.80;47.50;;;;;;5095707;28;20205;-43
2022/11/08 10:45:09;;;;;;;1.93;1.40;;;21.20;47.50;;;;;;5096454;28;20441;-45
2022/11/08 10:47:36;;;;;;;3.33;1.63;;;21.70;47.30;;;;;;5096826;28;20874;-43
2022/11/08 10:50:12;;;;;;;3.60;1.87;;;22.40;46.40;;;;;;5096833;28;20547;-46
2022/11/08 10:52:54;;;;;;;2.73;1.80;;;22.70;45.70;;;;;;5078001;28;20445;-45
2022/11/08 10:55:35;;;;;;;3.00;1.63;;;23.10;45.70;;;;;;5037859;28;20866;-44
2022/11/08 10:58:01;;;;;;;2.43;1.60;;;23.60;45.00;;;;;;5053092;28;20430;-43
2022/11/08 11:00:29;;;;;;;3.47;1.97;;;24.10;44.50;;;;;;5065839;28;20440;-46
2022/11/08 11:03:03;;;;;;;2.33;1.97;;;24.30;44.40;;;;;;5074744;28;20246;-43
2022/11/08 11:05:30;;;;;;;2.17;1.80;;;24.40;44.00;;;;;;5055557;28;20911;-45
2022/11/08 11:08:15;;;;;;;2.33;2.03;;;24.30;43.40;;;;;;5073422;28;20426;-45
2022/11/08 11:10:46;;;;;;;2.67;2.10;;;24.20;43.60;;;;;;5074787;28;20516;-45
2022/11/08 11:13:17;;;;;;;2.73;2.00;;;24.10;43.60;;;;;;5055036;28;20421;-43
2022/11/08 11:16:10;;;;;;;2.60;1.77;;;24.20;43.80;;;;;;5074868;28;20515;-45
2022/11/08 11:18:45;;;;;;;4.00;2.20;;;24.80;43.80;;;;;;5072482;28;20469;-44
2022/11/08 11:21:23;;;;;;;3.10;2.13;;;25.80;43.40;;;;;;5076750;28;20432;-43
2022/11/08 11:23:54;;;;;;;1.67;1.40;;;26.90;42.50;;;;;;5051232;28;20438;-45
2022/11/08 11:26:28;;;;;;;2.67;1.83;;;28.00;41.10;;;;;;5058066;28;20596;-45
2022/11/08 11:29:03;;;;;;;5.03;1.80;;;29.30;40.20;;;;;;5072060;28;20865;-45
2022/11/08 11:31:33;;;;;;;2.23;1.60;;;30.50;38.90;;;;;;5057337;28;20383;-45
2022/11/08 11:34:17;;;;;;;3.53;2.10;;;31.50;37.20;;;;;;5054057;28;20428;-45
2022/11/08 11:37:02;;;;;;;3.20;2.03;;;32.60;35.70;;;;;;5022618;28;20410;-45
2022/11/08 11:39:38;;;;;;;3.43;2.03;;;33.50;33.80;;;;;;5053790;28;20415;-44
2022/11/08 11:42:19;;;;;;;2.30;2.00;;;34.10;32.90;;;;;;5057085;28;20467;-46
2022/11/08 11:45:12;;;;;;;2.37;1.90;;;34.50;32.50;;;;;;5057011;28;20405;-47
2022/11/08 11:48:09;;;;;;;2.53;2.03;;;34.50;31.50;;;;;;5036183;28;20831;-46
2022/11/08 11:50:37;;;;;;;2.67;2.23;;;34.80;31.40;;;;;;5017218;28;20420;-46
2022/11/08 11:53:06;;;;;;;2.93;1.80;;;35.60;30.40;;;;;;5044742;28;20485;-45
2022/11/08 11:55:56;;;;;;;4.90;2.47;;;36.30;29.70;;;;;;5077681;28;20479;-45
2022/11/08 11:59:09;;;;;;;2.03;1.50;;;37.00;29.30;;;;;;5076441;28;20378;-46
2022/11/08 12:02:12;;;;;;;3.13;2.20;;;37.60;29.00;;;;;;4995108;28;20416;-45
2022/11/08 12:04:48;;;;;;;2.33;1.97;;;38.40;28.50;;;;;;4977811;28;20871;-46
2022/11/08 12:07:21;;;;;;;2.30;1.70;;;39.00;27.60;;;;;;5080219;28;20508;-44
2022/11/08 12:10:13;;;;;;;3.27;2.00;;;39.40;27.40;;;;;;5078000;28;20447;-46
2022/11/08 12:12:55;;;;;;;2.87;1.60;;;39.50;26.40;;;;;;5094618;28;20411;-46
2022/11/08 12:15:42;;;;;;;2.23;1.80;;;39.70;26.20;;;;;;5095187;28;20428;-49
2022/11/08 12:18:14;;;;;;;4.50;2.20;;;39.90;25.30;;;;;;5095351;28;20405;-48
2022/11/08 12:20:58;;;;;;;2.90;1.87;;;40.00;25.60;;;;;;5095347;28;20425;-47
2022/11/08 12:23:38;;;;;;;2.30;2.10;;;40.30;25.30;;;;;;5077993;28;20396;-45
2022/11/08 12:26:13;;;;;;;2.10;1.90;;;40.10;25.40;;;;;;5093198;28;20460;-48
2022/11/08 12:29:01;;;;;;;2.17;1.40;;;40.20;25.70;;;;;;5079353;28;20850;-47
2022/11/08 12:31:32;;;;;;;2.83;2.20;;;40.20;25.90;;;;;;5095915;28;20645;-45
2022/11/08 12:34:16;;;;;;;3.63;1.87;;;40.60;25.80;;;;;;5076940;28;20472;-47
2022/11/08 12:37:15;;;;;;;3.50;1.90;;;40.60;25.50;;;;;;5096717;28;20435;-49
2022/11/08 12:39:47;;;;;;;2.57;1.70;;;40.60;25.50;;;;;;5094629;28;20442;-47
2022/11/08 12:42:28;;;;;;;2.10;1.90;;;40.90;25.50;;;;;;5092157;28;20425;-50
2022/11/08 12:45:13;;;;;;;2.23;1.70;;;40.90;25.30;;;;;;5096095;28;20868;-49
2022/11/08 12:47:50;;;;;;;3.40;1.80;;;40.90;25.30;;;;;;5058221;28;20528;-46
2022/11/08 12:50:27;;;;;;;1.97;1.70;;;40.80;25.10;;;;;;5076188;28;20438;-47
2022/11/08 12:53:20;;;;;;;3.33;1.73;;;40.60;25.20;;;;;;5082296;28;20509;-47
2022/11/08 12:55:47;;;;;;;3.30;2.20;;;40.50;25.30;;;;;;5095595;28;20422;-48
2022/11/08 12:58:53;;;;;;;2.10;1.53;;;40.70;25.20;;;;;;5078483;28;20492;-48
2022/11/08 13:01:21;;;;;;;2.23;1.93;;;40.90;25.20;;;;;;5062733;28;20869;-47
2022/11/08 13:04:03;;;;;;;2.43;2.07;;;41.40;25.10;;;;;;5074813;28;20463;-47
2022/11/08 13:06:38;;;;;;;2.13;1.47;;;41.90;25.00;;;;;;5075008;28;20526;-49
2022/11/08 13:09:28;;;;;;;4.30;1.77;;;42.20;24.90;;;;;;5069317;28;20439;-45
2022/11/08 13:12:22;;;;;;;2.00;1.60;;;42.30;24.30;;;;;;5067282;28;20451;-46
2022/11/08 13:14:48;;;;;;;4.27;1.60;;;41.90;24.20;;;;;;5056658;28;20711;-46
2022/11/08 13:17:16;;;;;;;1.70;1.50;;;41.70;24.30;;;;;;5075716;28;20876;-46
2022/11/08 13:19:50;;;;;;;2.83;1.60;;;40.90;24.50;;;;;;5075437;28;20195;-48
2022/11/08 13:22:28;;;;;;;2.37;2.07;;;39.60;24.80;;;;;;5073618;28;20537;-48
2022/11/08 13:25:02;;;;;;;3.10;1.50;;;38.30;25.30;;;;;;5066248;28;20533;-47
2022/11/08 13:27:44;;;;;;;2.17;1.70;;;37.10;25.90;;;;;;5058666;28;20527;-46